Tyler Pounds Regional Airport
KTYR : now visible

Airfield :











YOU CAN JOIN US ON...

 
LOGIN :

Register | Disclaimer

   EN    FR    IT 

 









Legend :    VFR   Marginal VFR   IFR   Intensive IFR   Very Intensive IFR
Visi :
Ceiling :
>= 8 km
>= 3000ft
5 to 8 km
1000 to 3000 ft
1500m to 5 km
500 to 1000 ft
800 to 1500m
200 to 500 ft
< 800m
< 200 ft
Symbols :   Thunderstorms  Fog  Heavy snow  Heavy precipitations  Wind > 20 kt






- Airport Elevation : 544 ft
- IATA code : TYR


KTYR - Tyler Pounds Regional

CURRENT METAR :
  • 190753Z AUTO 05004KT 10SM CLR 24/22 A2996 RMK AO2 SLP138 T02390222

EXPIRED METARs :
  • 190653Z AUTO 07003KT 10SM CLR 24/22 A2997 RMK AO2 SLP139 T02440222
  • 190553Z AUTO 04003KT 10SM FEW030 FEW036 24/22 A2998 RMK AO2 SLP144 T02440222 10294 20244 403280233 50000

TAF KTYR
Valid from the 19 at 06:00 until the 20 at 06:00 UTC


190520Z 1906/2006 00000KT P6SM SKC
FM191400 06003KT P6SM VCSH BKN015
FM191600 07004KT P6SM VCTS BKN030CB
FM191800 08007KT P6SM VCTS BKN035CB
FM200000 15004KT P6SM SKC
KZFW FIR / North America



MET'MAP, your aeronautical weather chart ! - Copyright ORBIFLY December 2007 - Disclaimer

ORBIFLY MET'MAP TEAM :

Programming & Development : Alexandra Zaïnal
Concept & original design : Baudouin d'Aumeries
Assistance for programming : Marc-Olivier Méhu
Technical & hardware support : Manuel Goepfert

Contact : metmap@orbifly.com




SOURCES & CREDITS :

   NOAA       Earth
Advisory